Weather History for Waskish, MN

Change the Weather History Date:

Tuesday, February 4, 2014

  Actual Average (KBDE) Record (KBDE)
Temperature  
Mean Temperature -8 °F -  
Max Temperature 1 °F 17 °F 53 °F (1991)
Min Temperature -16 °F -7 °F -41 °F (1936)
Degree Days  
Heating Degree Days 72    
Moisture  
Dew Point -13 °F    
Average Humidity 73    
Maximum Humidity 85    
Minimum Humidity 56    
Precipitation  
Precipitation 0.00 in - - ()
Sea Level Pressure  
Sea Level Pressure 30.44 in    
Wind  
Wind Speed 7 mph (West)    
Max Wind Speed 10 mph    
Max Gust Speed -    
Visibility 10 miles    
Events Snow    
Averages and records for this station are not official NWS values.
T = Trace of Precipitation, MM = Missing Value Source: NWS Daily Summary

Daily Weather History Graph

Daily Weather History Graph

Search for Another Location

Airport:

Trip Planner

Search our weather history database for the weather conditions in past years. The results will help you decide how hot, cold, wet, or windy it might be!

Date:

Astronomy

Feb. 04, 2014 Rise Set
Actual Time 7:41 AM CST 5:22 PM CST
Civil Twilight 7:08 AM CST 5:55 PM CST
Nautical Twilight 6:31 AM CST 6:32 PM CST
Astronomical Twilight 5:55 AM CST 7:09 PM CST
Moon 9:52 AM CST (2/4) 11:48 PM CST (2/4)
Length of Visible Light 10h 46m
Length of Day
9h 40m
Waxing Crescent, 29% of the Moon is Illuminated
Feb 4
Waxing Crescent
Feb 6
First Quarter
Feb 14
Full
Feb 22
Last Quarter
Mar 1
New

Hourly Weather History & Observations

Time (CST) Temp. Windchill Dew Point Humidity Pressure Visibility Wind Dir Wind Speed Gust Speed Precip Events Conditions
12:16 AM 1.4 °F -14.5 °F -2.2 °F 85% 30.30 in 10.0 mi WSW 10.4 mph - N/A   Overcast
12:37 AM -0.4 °F -15.7 °F -5.8 °F 78% 30.30 in 10.0 mi West 9.2 mph - N/A   Overcast
12:57 AM -2.2 °F -16.8 °F -7.6 °F 78% 30.31 in 10.0 mi WSW 8.1 mph - N/A   Overcast
1:16 AM -2.2 °F -16.8 °F -7.6 °F 78% 30.32 in 10.0 mi WSW 8.1 mph - N/A   Overcast
1:37 AM -2.2 °F -16.8 °F -7.6 °F 78% 30.33 in 4.0 mi WSW 8.1 mph - N/A Snow Light Snow
1:57 AM -4.0 °F -19.0 °F -7.6 °F 85% 30.33 in 10.0 mi WSW 8.1 mph - N/A   Overcast
2:16 AM -5.8 °F -18.4 °F -9.4 °F 84% 30.34 in 10.0 mi WSW 5.8 mph - N/A   Overcast
2:37 AM -5.8 °F -18.4 °F -9.4 °F 84% 30.35 in 4.0 mi SW 5.8 mph - N/A Snow Light Snow
2:57 AM -7.6 °F -18.8 °F -11.2 °F 84% 30.35 in 10.0 mi SW 4.6 mph - N/A   Scattered Clouds
3:16 AM -7.6 °F -20.6 °F -11.2 °F 84% 30.36 in 10.0 mi SW 5.8 mph - N/A   Clear
3:37 AM -7.6 °F -22.1 °F -11.2 °F 84% 30.37 in 10.0 mi SW 6.9 mph - N/A   Clear
3:57 AM -9.4 °F -24.3 °F -13.0 °F 84% 30.37 in 10.0 mi SW 6.9 mph - N/A   Scattered Clouds
4:16 AM -9.4 °F -26.8 °F -13.0 °F 84% 30.38 in 10.0 mi SW 9.2 mph - N/A   Mostly Cloudy
4:37 AM -9.4 °F -22.7 °F -13.0 °F 84% 30.39 in 10.0 mi SW 5.8 mph - N/A   Overcast
4:57 AM -9.4 °F -24.3 °F -13.0 °F 84% 30.39 in 10.0 mi WSW 6.9 mph - N/A   Overcast
5:16 AM -7.6 °F -22.1 °F -11.2 °F 84% 30.39 in 10.0 mi West 6.9 mph - N/A   Overcast
5:37 AM -9.4 °F -22.7 °F -14.8 °F 77% 30.39 in 10.0 mi WSW 5.8 mph - N/A   Mostly Cloudy
5:57 AM -11.2 °F -24.8 °F -16.6 °F 77% 30.39 in 10.0 mi SW 5.8 mph - N/A   Scattered Clouds
6:16 AM -13.0 °F -27.0 °F -16.6 °F 84% 30.40 in 10.0 mi WSW 5.8 mph - N/A   Clear
6:37 AM -13.0 °F -28.6 °F -16.6 °F 84% 30.41 in 10.0 mi WSW 6.9 mph - N/A   Scattered Clouds
6:57 AM -13.0 °F -28.6 °F -18.4 °F 77% 30.41 in 10.0 mi WSW 6.9 mph - N/A   Clear
7:16 AM -14.8 °F -29.1 °F -18.4 °F 84% 30.42 in 10.0 mi WSW 5.8 mph - N/A   Clear
7:37 AM -16.6 °F -32.9 °F -20.2 °F 84% 30.43 in 10.0 mi WSW 6.9 mph - N/A   Clear
7:57 AM -14.8 °F -27.2 °F -18.4 °F 84% 30.44 in 10.0 mi WSW 4.6 mph - N/A   Mostly Cloudy
8:16 AM -11.2 °F -24.8 °F -16.6 °F 77% 30.44 in 10.0 mi WSW 5.8 mph - N/A   Overcast
8:37 AM -11.2 °F -23.0 °F -16.6 °F 77% 30.45 in 10.0 mi WSW 4.6 mph - N/A   Overcast
8:57 AM -9.4 °F -22.7 °F -14.8 °F 77% 30.45 in 10.0 mi WSW 5.8 mph - N/A   Overcast
9:16 AM -7.6 °F -20.6 °F -13.0 °F 77% 30.46 in 10.0 mi WSW 5.8 mph - N/A   Overcast
9:37 AM -7.6 °F -20.6 °F -11.2 °F 84% 30.47 in 10.0 mi WSW 5.8 mph - N/A   Overcast
9:57 AM -7.6 °F -18.8 °F -11.2 °F 84% 30.47 in 10.0 mi SW 4.6 mph - N/A   Overcast
10:16 AM -5.8 °F -16.7 °F -11.2 °F 77% 30.47 in 10.0 mi SW 4.6 mph - N/A   Overcast
10:37 AM -4.0 °F -12.4 °F -9.4 °F 78% 30.48 in 10.0 mi WSW 3.5 mph - N/A   Overcast
10:57 AM -2.2 °F -10.4 °F -9.4 °F 71% 30.48 in 10.0 mi SW 3.5 mph - N/A   Overcast
11:17 AM -0.4 °F -10.4 °F -9.4 °F 66% 30.48 in 10.0 mi WSW 4.6 mph - N/A   Overcast
11:37 AM -0.4 °F -10.4 °F -9.4 °F 66% 30.48 in 10.0 mi WSW 4.6 mph - N/A   Overcast
11:57 AM -0.4 °F -13.4 °F -7.6 °F 72% 30.48 in 10.0 mi WNW 6.9 mph - N/A   Overcast
12:17 PM 1.4 °F -13.5 °F -9.4 °F 61% 30.48 in 10.0 mi WNW 9.2 mph - N/A   Overcast
12:37 PM 1.4 °F -12.5 °F -9.4 °F 61% 30.48 in 10.0 mi NW 8.1 mph - N/A   Overcast
12:57 PM 1.4 °F -9.9 °F -9.4 °F 61% 30.48 in 10.0 mi NW 5.8 mph - N/A   Overcast
1:17 PM 1.4 °F -11.3 °F -11.2 °F 56% 30.47 in 10.0 mi NW 6.9 mph - N/A   Overcast
1:37 PM 1.4 °F -11.3 °F -11.2 °F 56% 30.47 in 10.0 mi NW 6.9 mph - N/A   Overcast
1:57 PM 1.4 °F -12.5 °F -11.2 °F 56% 30.46 in 10.0 mi WNW 8.1 mph - N/A   Overcast
2:17 PM 1.4 °F -9.9 °F -9.4 °F 61% 30.46 in 10.0 mi NW 5.8 mph - N/A   Overcast
2:37 PM 1.4 °F -13.5 °F -11.2 °F 56% 30.46 in 10.0 mi NW 9.2 mph - N/A   Overcast
2:56 PM 1.4 °F -11.3 °F -9.4 °F 61% 30.46 in 10.0 mi NW 6.9 mph - N/A   Overcast
3:17 PM 1.4 °F -12.5 °F -11.2 °F 56% 30.46 in 10.0 mi NW 8.1 mph - N/A   Overcast
3:37 PM 1.4 °F -12.5 °F -9.4 °F 61% 30.47 in 10.0 mi WNW 8.1 mph - N/A   Overcast
3:56 PM 1.4 °F -9.9 °F -9.4 °F 61% 30.46 in 10.0 mi NW 5.8 mph - N/A   Overcast
4:17 PM 1.4 °F -11.3 °F -9.4 °F 61% 30.47 in 10.0 mi WNW 6.9 mph - N/A   Overcast
4:37 PM 1.4 °F -12.5 °F -9.4 °F 61% 30.48 in 10.0 mi WNW 8.1 mph - N/A   Overcast
4:56 PM -0.4 °F -12.0 °F -11.2 °F 60% 30.49 in 10.0 mi WNW 5.8 mph - N/A   Overcast
5:17 PM -0.4 °F -10.4 °F -11.2 °F 60% 30.50 in 10.0 mi WNW 4.6 mph - N/A   Overcast
5:37 PM -0.4 °F -8.3 °F -11.2 °F 60% 30.50 in 10.0 mi WNW 3.5 mph - N/A   Overcast
5:56 PM -2.2 °F - -11.2 °F 66% 30.50 in 10.0 mi Calm Calm - N/A   Overcast
6:17 PM -2.2 °F - -11.2 °F 66% 30.50 in 10.0 mi Calm Calm - N/A   Scattered Clouds
6:37 PM -2.2 °F - -13.0 °F 60% 30.50 in 10.0 mi Calm Calm - N/A   Clear
6:56 PM -4.0 °F -12.4 °F -14.8 °F 60% 30.50 in 10.0 mi NW 3.5 mph - N/A   Clear
7:17 PM -7.6 °F -16.5 °F -14.8 °F 71% 30.50 in 10.0 mi WNW 3.5 mph - N/A   Clear
7:37 PM -7.6 °F -16.5 °F -14.8 °F 71% 30.49 in 10.0 mi West 3.5 mph - N/A   Clear
7:56 PM -7.6 °F -16.5 °F -14.8 °F 71% 30.48 in 10.0 mi NW 3.5 mph - N/A   Clear
8:17 PM -7.6 °F -18.8 °F -14.8 °F 71% 30.48 in 10.0 mi NW 4.6 mph - N/A   Clear
8:37 PM -7.6 °F -20.6 °F -14.8 °F 71% 30.48 in 10.0 mi NW 5.8 mph - N/A   Clear
8:56 PM -9.4 °F -20.9 °F -16.6 °F 71% 30.48 in 10.0 mi WNW 4.6 mph - N/A   Clear
9:17 PM -11.2 °F - -18.4 °F 70% 30.48 in 10.0 mi Calm Calm - N/A   Clear
9:37 PM -9.4 °F -18.6 °F -16.6 °F 71% 30.48 in 10.0 mi West 3.5 mph - N/A   Clear
9:56 PM -11.2 °F - -16.6 °F 77% 30.48 in 10.0 mi Calm Calm - N/A   Clear
10:17 PM -11.2 °F -20.6 °F -18.4 °F 70% 30.49 in 10.0 mi West 3.5 mph - N/A   Clear
10:37 PM -14.8 °F -27.2 °F -18.4 °F 84% 30.49 in 10.0 mi WSW 4.6 mph - N/A   Clear
10:56 PM -14.8 °F -27.2 °F -18.4 °F 84% 30.50 in 10.0 mi WSW 4.6 mph - N/A   Clear
11:17 PM -13.0 °F -25.1 °F -18.4 °F 77% 30.50 in 10.0 mi WSW 4.6 mph - N/A   Clear
11:37 PM -14.8 °F -27.2 °F -18.4 °F 84% 30.50 in 10.0 mi WSW 4.6 mph - N/A   Clear
11:56 PM -14.8 °F -27.2 °F -18.4 °F 84% 30.50 in 10.0 mi WSW 4.6 mph - N/A   Clear